Time,TemperatureF,DewpointF,PressureIn,WindDirection,WindDirectionDegrees,WindSpeedMPH,WindSpeedGustMPH,Humidity,HourlyPrecipIn,Conditions,Clouds,dailyrainin,SolarRadiationWatts/m^2,SoftwareType,DateUTC
2013-04-24 00:01:00,68.0,60.0,-100.00,ENE,59,3.0,9.0,76,0.00,,,0.00,0.000000,,2013-04-24 04:01:00,
2013-04-24 00:11:00,67.0,61.0,-100.00,NE,47,3.0,7.0,81,0.00,,,0.00,0.000000,,2013-04-24 04:11:00,
2013-04-24 00:43:00,67.0,61.0,-100.00,NE,47,3.0,7.0,81,0.00,,,0.00,0.000000,,2013-04-24 04:43:00,
2013-04-24 00:53:00,67.0,61.0,-100.00,NE,47,3.0,7.0,81,0.00,,,0.00,0.000000,,2013-04-24 04:53:00,
2013-04-24 01:02:00,67.0,61.0,-100.00,NE,47,3.0,7.0,81,0.00,,,0.00,0.000000,,2013-04-24 05:02:00,
2013-04-24 01:11:00,66.0,60.0,-100.00,NE,52,3.0,8.0,80,0.00,,,0.00,0.000000,,2013-04-24 05:11:00,
2013-04-24 01:42:00,66.0,60.0,-100.00,NE,52,3.0,8.0,80,0.00,,,0.00,0.000000,,2013-04-24 05:42:00,
2013-04-24 01:52:00,66.0,60.0,-100.00,NE,52,3.0,8.0,80,0.00,,,0.00,0.000000,,2013-04-24 05:52:00,
2013-04-24 02:02:00,66.0,60.0,-100.00,NE,52,3.0,8.0,80,0.00,,,0.00,0.000000,,2013-04-24 06:02:00,
2013-04-24 02:11:00,62.0,59.0,-100.00,ENE,57,0.0,5.0,90,0.00,,,0.00,0.000000,,2013-04-24 06:11:00,
2013-04-24 02:33:00,62.0,59.0,-100.00,ENE,57,0.0,5.0,90,0.00,,,0.00,0.000000,,2013-04-24 06:33:00,
2013-04-24 02:42:00,62.0,59.0,-100.00,ENE,57,0.0,5.0,90,0.00,,,0.00,0.000000,,2013-04-24 06:42:00,
2013-04-24 02:52:00,62.0,59.0,-100.00,ENE,57,0.0,5.0,90,0.00,,,0.00,0.000000,,2013-04-24 06:52:00,
2013-04-24 03:02:00,62.0,59.0,-100.00,ENE,57,0.0,5.0,90,0.00,,,0.00,0.000000,,2013-04-24 07:02:00,
2013-04-24 03:11:00,60.0,58.0,-100.00,North,6,0.0,2.0,94,0.00,,,0.00,0.000000,,2013-04-24 07:11:00,
2013-04-24 03:32:00,60.0,58.0,-100.00,North,6,0.0,2.0,94,0.00,,,0.00,0.000000,,2013-04-24 07:32:00,
2013-04-24 03:42:00,60.0,58.0,-100.00,North,6,0.0,2.0,94,0.00,,,0.00,0.000000,,2013-04-24 07:42:00,
2013-04-24 03:52:00,60.0,58.0,-100.00,North,6,0.0,2.0,94,0.00,,,0.00,0.000000,,2013-04-24 07:52:00,
2013-04-24 04:02:00,60.0,58.0,-100.00,North,6,0.0,2.0,94,0.00,,,0.00,0.000000,,2013-04-24 08:02:00,
2013-04-24 04:11:00,58.0,57.0,-100.00,NNE,23,0.0,0.0,95,0.00,,,0.00,0.000000,,2013-04-24 08:11:00,
2013-04-24 04:42:00,58.0,57.0,-100.00,NNE,23,0.0,0.0,95,0.00,,,0.00,0.000000,,2013-04-24 08:42:00,
2013-04-24 04:52:00,58.0,57.0,-100.00,NNE,23,0.0,0.0,95,0.00,,,0.00,0.000000,,2013-04-24 08:52:00,
2013-04-24 05:02:00,58.0,57.0,-100.00,NNE,23,0.0,0.0,95,0.00,,,0.00,0.000000,,2013-04-24 09:02:00,
2013-04-24 05:11:00,57.0,56.0,-100.00,NNE,13,0.0,0.0,96,0.00,,,0.00,0.000000,,2013-04-24 09:11:00,
2013-04-24 05:33:00,57.0,56.0,-100.00,NNE,13,0.0,0.0,96,0.00,,,0.00,0.000000,,2013-04-24 09:33:00,
2013-04-24 05:42:00,57.0,56.0,-100.00,NNE,13,0.0,0.0,96,0.00,,,0.00,0.000000,,2013-04-24 09:42:00,
2013-04-24 05:53:00,57.0,56.0,-100.00,NNE,13,0.0,0.0,96,0.00,,,0.00,0.000000,,2013-04-24 09:53:00,
2013-04-24 06:02:00,57.0,56.0,-100.00,NNE,13,0.0,0.0,96,0.00,,,0.00,0.000000,,2013-04-24 10:02:00,
2013-04-24 06:11:00,55.0,54.0,-100.00,NNW,327,0.0,0.0,96,0.00,,,0.00,0.000000,,2013-04-24 10:11:00,
2013-04-24 06:33:00,55.0,54.0,-100.00,NNW,327,0.0,0.0,96,0.00,,,0.00,0.000000,,2013-04-24 10:33:00,
2013-04-24 06:42:00,55.0,54.0,-100.00,NNW,327,0.0,0.0,96,0.00,,,0.00,0.000000,,2013-04-24 10:42:00,
2013-04-24 06:53:00,55.0,54.0,-100.00,NNW,327,0.0,0.0,96,0.00,,,0.00,0.000000,,2013-04-24 10:53:00,
2013-04-24 07:03:00,55.0,54.0,-100.00,NNW,327,0.0,0.0,96,0.00,,,0.00,0.000000,,2013-04-24 11:03:00,
2013-04-24 07:11:00,55.0,54.0,-100.00,NNE,12,0.0,0.0,96,0.00,,,0.00,2.000000,,2013-04-24 11:11:00,
2013-04-24 07:32:00,55.0,54.0,-100.00,NNE,12,0.0,0.0,96,0.00,,,0.00,2.000000,,2013-04-24 11:32:00,
2013-04-24 07:43:00,55.0,54.0,-100.00,NNE,12,0.0,0.0,96,0.00,,,0.00,2.000000,,2013-04-24 11:43:00,
2013-04-24 07:53:00,55.0,54.0,-100.00,NNE,12,0.0,0.0,96,0.00,,,0.00,2.000000,,2013-04-24 11:53:00,
2013-04-24 08:02:00,55.0,54.0,-100.00,NNE,12,0.0,0.0,96,0.00,,,0.00,2.000000,,2013-04-24 12:02:00,
2013-04-24 08:11:00,62.0,61.0,-100.00,NNW,339,0.0,2.0,96,0.00,,,-99.99,47.000000,,2013-04-24 12:11:00,
2013-04-24 08:42:00,62.0,61.0,-100.00,NNW,339,0.0,2.0,96,0.00,,,-99.99,47.000000,,2013-04-24 12:42:00,
2013-04-24 08:52:00,62.0,61.0,-100.00,NNW,339,0.0,2.0,96,0.00,,,-99.99,47.000000,,2013-04-24 12:52:00,
2013-04-24 09:01:00,62.0,61.0,-100.00,NNW,339,0.0,2.0,96,0.00,,,-99.99,47.000000,,2013-04-24 13:01:00,
2013-04-24 10:11:00,79.0,62.0,-100.00,NE,55,4.0,7.0,57,-99.99,,,0.00,491.000000,,2013-04-24 14:11:00,
2013-04-24 10:42:00,79.0,62.0,-100.00,NE,55,4.0,7.0,57,-99.99,,,0.00,491.000000,,2013-04-24 14:42:00,
2013-04-24 10:52:00,79.0,62.0,-100.00,NE,55,4.0,7.0,57,-99.99,,,0.00,491.000000,,2013-04-24 14:52:00,
2013-04-24 11:01:00,79.0,62.0,-100.00,NE,55,4.0,7.0,57,-99.99,,,0.00,491.000000,,2013-04-24 15:01:00,
2013-04-24 11:11:00,81.0,63.0,-100.00,ENE,73,4.0,9.0,54,0.00,,,0.00,672.000000,,2013-04-24 15:11:00,
2013-04-24 11:43:00,81.0,63.0,-100.00,ENE,73,4.0,9.0,54,0.00,,,0.00,672.000000,,2013-04-24 15:43:00,
2013-04-24 11:53:00,81.0,63.0,-100.00,ENE,73,4.0,9.0,54,0.00,,,0.00,672.000000,,2013-04-24 15:53:00,
2013-04-24 12:03:00,81.0,63.0,-100.00,ENE,73,4.0,9.0,54,0.00,,,0.00,672.000000,,2013-04-24 16:03:00,
2013-04-24 12:11:00,85.0,62.0,-100.00,SE,134,4.0,9.0,47,0.00,,,0.00,804.000000,,2013-04-24 16:11:00,
2013-04-24 12:42:00,85.0,62.0,-100.00,SE,134,4.0,9.0,47,0.00,,,0.00,804.000000,,2013-04-24 16:42:00,
2013-04-24 12:53:00,85.0,62.0,-100.00,SE,134,4.0,9.0,47,0.00,,,0.00,804.000000,,2013-04-24 16:53:00,
2013-04-24 13:02:00,85.0,62.0,-100.00,SE,134,4.0,9.0,47,0.00,,,0.00,804.000000,,2013-04-24 17:02:00,
2013-04-24 13:11:00,86.0,61.0,-100.00,ESE,109,4.0,11.0,43,0.00,,,0.00,838.000000,,2013-04-24 17:11:00,
2013-04-24 13:42:00,86.0,61.0,-100.00,ESE,109,4.0,11.0,43,0.00,,,0.00,838.000000,,2013-04-24 17:42:00,
2013-04-24 13:52:00,86.0,61.0,-100.00,ESE,109,4.0,11.0,43,0.00,,,0.00,838.000000,,2013-04-24 17:52:00,
2013-04-24 14:02:00,86.0,61.0,-100.00,ESE,109,4.0,11.0,43,0.00,,,0.00,838.000000,,2013-04-24 18:02:00,
2013-04-24 14:11:00,88.0,61.0,-100.00,East,100,4.0,9.0,40,0.00,,,0.00,883.000000,,2013-04-24 18:11:00,
2013-04-24 14:33:00,88.0,61.0,-100.00,East,100,4.0,9.0,40,0.00,,,0.00,883.000000,,2013-04-24 18:33:00,
2013-04-24 14:43:00,88.0,61.0,-100.00,East,100,4.0,9.0,40,0.00,,,0.00,883.000000,,2013-04-24 18:43:00,
2013-04-24 14:52:00,88.0,61.0,-100.00,East,100,4.0,9.0,40,0.00,,,0.00,883.000000,,2013-04-24 18:52:00,
2013-04-24 15:02:00,88.0,61.0,-100.00,East,100,4.0,9.0,40,0.00,,,0.00,883.000000,,2013-04-24 19:02:00,
2013-04-24 15:11:00,89.0,59.0,-100.00,ESE,113,3.0,10.0,37,0.00,,,0.00,848.000000,,2013-04-24 19:11:00,
2013-04-24 15:32:00,89.0,59.0,-100.00,ESE,113,3.0,10.0,37,0.00,,,0.00,848.000000,,2013-04-24 19:32:00,
2013-04-24 15:42:00,89.0,59.0,-100.00,ESE,113,3.0,10.0,37,0.00,,,0.00,848.000000,,2013-04-24 19:42:00,
2013-04-24 15:52:00,89.0,59.0,-100.00,ESE,113,3.0,10.0,37,0.00,,,0.00,848.000000,,2013-04-24 19:52:00,
2013-04-24 16:02:00,89.0,59.0,-100.00,ESE,113,3.0,10.0,37,0.00,,,0.00,848.000000,,2013-04-24 20:02:00,
2013-04-24 16:11:00,89.0,59.0,-100.00,ENE,69,4.0,11.0,36,0.00,,,0.00,597.000000,,2013-04-24 20:11:00,
2013-04-24 16:32:00,89.0,59.0,-100.00,ENE,69,4.0,11.0,36,0.00,,,0.00,597.000000,,2013-04-24 20:32:00,
2013-04-24 16:42:00,89.0,59.0,-100.00,ENE,69,4.0,11.0,36,0.00,,,0.00,597.000000,,2013-04-24 20:42:00,
2013-04-24 16:52:00,89.0,59.0,-100.00,ENE,69,4.0,11.0,36,0.00,,,0.00,597.000000,,2013-04-24 20:52:00,
2013-04-24 17:02:00,89.0,59.0,-100.00,ENE,69,4.0,11.0,36,0.00,,,0.00,597.000000,,2013-04-24 21:02:00,
2013-04-24 17:11:00,88.0,58.0,-100.00,ENE,70,3.0,7.0,37,0.00,,,0.00,478.000000,,2013-04-24 21:11:00,
2013-04-24 17:43:00,88.0,58.0,-100.00,ENE,70,3.0,7.0,37,0.00,,,0.00,478.000000,,2013-04-24 21:43:00,
2013-04-24 17:53:00,88.0,58.0,-100.00,ENE,70,3.0,7.0,37,0.00,,,0.00,478.000000,,2013-04-24 21:53:00,
2013-04-24 18:03:00,88.0,58.0,-100.00,ENE,70,3.0,7.0,37,0.00,,,0.00,478.000000,,2013-04-24 22:03:00,
2013-04-24 18:11:00,84.0,63.0,-100.00,East,90,2.0,5.0,49,0.00,,,0.00,211.000000,,2013-04-24 22:11:00,
2013-04-24 18:33:00,84.0,63.0,-100.00,East,90,2.0,5.0,49,0.00,,,0.00,211.000000,,2013-04-24 22:33:00,
2013-04-24 18:42:00,84.0,63.0,-100.00,East,90,2.0,5.0,49,0.00,,,0.00,211.000000,,2013-04-24 22:42:00,
2013-04-24 18:52:00,84.0,63.0,-100.00,East,90,2.0,5.0,49,0.00,,,0.00,211.000000,,2013-04-24 22:52:00,
2013-04-24 19:02:00,84.0,63.0,-100.00,East,90,2.0,5.0,49,0.00,,,0.00,211.000000,,2013-04-24 23:02:00,
2013-04-24 19:11:00,80.0,67.0,-100.00,NNE,18,0.0,2.0,65,0.00,,,0.00,77.000000,,2013-04-24 23:11:00,
2013-04-24 19:42:00,80.0,67.0,-100.00,NNE,18,0.0,2.0,65,0.00,,,0.00,77.000000,,2013-04-24 23:42:00,
2013-04-24 19:52:00,80.0,67.0,-100.00,NNE,18,0.0,2.0,65,0.00,,,0.00,77.000000,,2013-04-24 23:52:00,
2013-04-24 20:02:00,80.0,67.0,-100.00,NNE,18,0.0,2.0,65,0.00,,,0.00,77.000000,,2013-04-25 00:02:00,
2013-04-24 20:11:00,77.0,65.0,-100.00,East,91,1.0,6.0,67,0.00,,,-99.99,22.000000,,2013-04-25 00:11:00,
2013-04-24 20:32:00,77.0,65.0,-100.00,East,91,1.0,6.0,67,0.00,,,-99.99,22.000000,,2013-04-25 00:32:00,
2013-04-24 20:42:00,77.0,65.0,-100.00,East,91,1.0,6.0,67,0.00,,,-99.99,22.000000,,2013-04-25 00:42:00,
2013-04-24 20:52:00,77.0,65.0,-100.00,East,91,1.0,6.0,67,0.00,,,-99.99,22.000000,,2013-04-25 00:52:00,
2013-04-24 21:02:00,77.0,65.0,-100.00,East,91,1.0,6.0,67,0.00,,,-99.99,22.000000,,2013-04-25 01:02:00,
2013-04-24 21:11:00,71.0,65.0,-100.00,East,90,1.0,4.0,82,0.00,,,0.00,0.000000,,2013-04-25 01:11:00,
2013-04-24 21:32:00,71.0,65.0,-100.00,East,90,1.0,4.0,82,0.00,,,0.00,0.000000,,2013-04-25 01:32:00,
2013-04-24 21:42:00,71.0,65.0,-100.00,East,90,1.0,4.0,82,0.00,,,0.00,0.000000,,2013-04-25 01:42:00,
2013-04-24 21:53:00,71.0,65.0,-100.00,East,90,1.0,4.0,82,0.00,,,0.00,0.000000,,2013-04-25 01:53:00,
2013-04-24 22:02:00,71.0,65.0,-100.00,East,90,1.0,4.0,82,0.00,,,0.00,0.000000,,2013-04-25 02:02:00,
2013-04-24 22:11:00,67.0,64.0,-100.00,West,274,0.0,2.0,89,0.00,,,0.00,0.000000,,2013-04-25 02:11:00,
2013-04-24 22:32:00,67.0,64.0,-100.00,West,274,0.0,2.0,89,0.00,,,0.00,0.000000,,2013-04-25 02:32:00,
2013-04-24 22:42:00,67.0,64.0,-100.00,West,274,0.0,2.0,89,0.00,,,0.00,0.000000,,2013-04-25 02:42:00,
2013-04-24 22:52:00,67.0,64.0,-100.00,West,274,0.0,2.0,89,0.00,,,0.00,0.000000,,2013-04-25 02:52:00,
2013-04-24 23:02:00,67.0,64.0,-100.00,West,274,0.0,2.0,89,0.00,,,0.00,0.000000,,2013-04-25 03:02:00,
2013-04-24 23:11:00,66.0,64.0,-100.00,NE,53,0.0,2.0,92,0.00,,,0.00,0.000000,,2013-04-25 03:11:00,
2013-04-24 23:33:00,66.0,64.0,-100.00,NE,53,0.0,2.0,92,0.00,,,0.00,0.000000,,2013-04-25 03:33:00,
2013-04-24 23:43:00,66.0,64.0,-100.00,NE,53,0.0,2.0,92,0.00,,,0.00,0.000000,,2013-04-25 03:43:00,
2013-04-24 23:52:00,66.0,64.0,-100.00,NE,53,0.0,2.0,92,0.00,,,0.00,0.000000,,2013-04-25 03:52:00,